Time;durP1;ratioP1;P1;durP2;ratioP2;P2;SDS_P1;SDS_P2;PMS_P1;PMS_P2;Temp;Humidity;BMP_temperature;BMP_pressure;BME280_temperature;BME280_humidity;BME280_pressure;Samples;Min_cycle;Max_cycle;Signal;HPM_P1;HPM_P2
2022/01/03 00:03:20;;;;;;;4.72;1.90;;;;;;;10.47;100.00;98263.75;10300984;28;20066;-80
2022/01/03 00:08:21;;;;;;;4.60;1.95;;;;;;;10.61;100.00;98234.81;10308705;28;20039;-81
2022/01/03 00:13:24;;;;;;;2.80;1.33;;;;;;;10.67;100.00;98235.41;10326911;28;20055;-82
2022/01/03 00:18:44;;;;;;;5.45;1.85;;;;;;;10.77;100.00;98226.97;10308852;28;20471;-81
2022/01/03 00:24:02;;;;;;;3.42;1.42;;;;;;;10.75;100.00;98231.91;10306894;28;20055;-83
2022/01/03 00:29:30;;;;;;;4.63;1.30;;;;;;;10.86;100.00;98232.31;10275526;28;20061;-81
2022/01/03 00:34:41;;;;;;;7.25;1.83;;;;;;;10.83;100.00;98215.75;10288714;28;20069;-82
2022/01/03 00:39:45;;;;;;;5.47;1.35;;;;;;;10.74;100.00;98209.63;10334303;23;20056;-81
2022/01/03 00:44:52;;;;;;;3.63;1.58;;;;;;;10.73;100.00;98226.84;10307570;28;20062;-83
2022/01/03 00:50:11;;;;;;;5.75;1.73;;;;;;;10.73;100.00;98209.97;10339702;28;20058;-82
2022/01/03 00:55:13;;;;;;;4.93;1.50;;;;;;;10.70;100.00;98218.69;10289357;28;20081;-81
2022/01/03 01:00:29;;;;;;;5.05;1.40;;;;;;;10.74;100.00;98215.00;10329989;28;20075;-81
2022/01/03 01:06:02;;;;;;;3.83;1.58;;;;;;;10.89;100.00;98226.31;10298203;28;20066;-82
2022/01/03 01:11:17;;;;;;;4.82;1.35;;;;;;;10.88;100.00;98208.59;10303968;28;20054;-80
2022/01/03 01:16:30;;;;;;;5.95;1.40;;;;;;;10.87;100.00;98212.38;10347319;28;20060;-81
2022/01/03 01:21:33;;;;;;;4.35;1.30;;;;;;;10.96;100.00;98197.00;10324695;28;20055;-82
2022/01/03 01:31:59;;;;;;;3.60;1.30;;;;;;;10.96;100.00;98199.69;10325453;28;20066;-80
2022/01/03 01:37:01;;;;;;;5.20;1.33;;;;;;;10.88;100.00;98203.22;10305223;28;20062;-82
2022/01/03 01:42:06;;;;;;;5.32;1.63;;;;;;;10.94;100.00;98213.44;10323205;28;20078;-79
2022/01/03 01:47:16;;;;;;;4.95;1.50;;;;;;;10.94;100.00;98208.09;10323811;28;20034;-80
2022/01/03 01:52:24;;;;;;;6.38;1.52;;;;;;;10.99;100.00;98204.44;10342079;28;20046;-80
2022/01/03 01:57:48;;;;;;;5.25;1.40;;;;;;;11.04;100.00;98202.31;10372474;28;20113;-81
2022/01/03 02:03:24;;;;;;;;;;;;;;;10.20;100.00;98308.63;10352222;28;20830;-81
2022/01/03 02:08:43;;;;;;;7.13;1.23;;;;;;;8.11;100.00;98375.38;10326537;28;19921;-81
2022/01/03 02:13:46;;;;;;;3.08;0.95;;;;;;;7.60;100.00;98397.91;10351919;28;20078;-82
2022/01/03 02:18:47;;;;;;;1.95;0.60;;;;;;;7.25;100.00;98410.13;10306407;28;20057;-78
2022/01/03 02:23:49;;;;;;;2.88;0.68;;;;;;;7.09;100.00;98428.28;10331605;28;20110;-78
2022/01/03 02:28:50;;;;;;;2.97;0.60;;;;;;;6.99;100.00;98441.84;10362716;28;20093;-79
2022/01/03 02:33:53;;;;;;;4.70;0.80;;;;;;;6.84;100.00;98452.75;10338518;28;20058;-79
2022/01/03 02:39:09;;;;;;;1.30;0.90;;;;;;;6.78;100.00;98436.06;10343281;28;20081;-82
2022/01/03 02:45:07;;;;;;;13.52;1.42;;;;;;;6.76;100.00;98451.56;10310044;28;20053;-82
2022/01/03 02:50:10;;;;;;;0.95;0.50;;;;;;;6.70;100.00;98458.09;10340650;28;20210;-80
2022/01/03 02:55:19;;;;;;;1.73;0.63;;;;;;;6.65;100.00;98449.38;10339381;28;20142;-80
2022/01/03 03:00:29;;;;;;;2.78;0.60;;;;;;;6.51;100.00;98412.00;10360320;28;20158;-79
2022/01/03 03:05:30;;;;;;;1.77;0.50;;;;;;;6.46;100.00;98420.09;10338363;28;20058;-78
2022/01/03 03:10:31;;;;;;;0.80;0.38;;;;;;;6.47;100.00;98427.78;10339198;28;20057;-78
2022/01/03 03:15:34;;;;;;;2.08;0.63;;;;;;;6.53;100.00;98439.16;10328874;28;20093;-79
2022/01/03 03:20:36;;;;;;;1.80;0.68;;;;;;;6.61;100.00;98448.38;10329745;28;20046;-78
2022/01/03 03:25:41;;;;;;;3.22;0.70;;;;;;;6.64;100.00;98429.13;10351745;28;20058;-79
2022/01/03 03:30:47;;;;;;;1.35;0.60;;;;;;;6.71;100.00;98425.00;10324422;28;20080;-77
2022/01/03 03:36:07;;;;;;;2.05;0.65;;;;;;;6.80;100.00;98427.78;10325497;28;20058;-77
2022/01/03 03:41:09;;;;;;;3.22;0.90;;;;;;;6.82;100.00;98415.72;10353177;28;20083;-78
2022/01/03 03:46:23;;;;;;;1.63;0.60;;;;;;;6.92;100.00;98421.94;10346319;28;20134;-79
2022/01/03 03:51:24;;;;;;;2.00;0.70;;;;;;;6.87;100.00;98425.53;10361813;28;20049;-79
2022/01/03 03:56:45;;;;;;;3.05;1.10;;;;;;;6.82;100.00;98450.41;10396222;28;20054;-79
2022/01/03 04:01:47;;;;;;;3.47;0.88;;;;;;;6.81;100.00;98448.03;10377247;28;20053;-79
2022/01/03 04:06:48;;;;;;;1.70;0.73;;;;;;;6.81;100.00;98437.34;10389588;28;20046;-81
2022/01/03 04:11:49;;;;;;;4.55;0.90;;;;;;;6.74;100.00;98440.41;10382197;28;20038;-81
2022/01/03 04:16:50;;;;;;;1.98;0.70;;;;;;;6.68;100.00;98452.25;10367890;28;20171;-83
2022/01/03 04:21:52;;;;;;;5.38;0.55;;;;;;;6.71;100.00;98448.22;10359062;28;20030;-81
2022/01/03 04:26:55;;;;;;;2.47;0.60;;;;;;;6.68;100.00;98444.25;10359027;28;20038;-81
2022/01/03 04:32:01;;;;;;;3.55;0.90;;;;;;;6.65;100.00;98458.16;10375478;28;20069;-81
2022/01/03 04:37:04;;;;;;;4.95;0.98;;;;;;;6.74;100.00;98444.94;10348195;28;20058;-81
2022/01/03 04:42:12;;;;;;;3.95;1.33;;;;;;;6.69;100.00;98453.06;10355686;28;20117;-79
2022/01/03 04:47:14;;;;;;;6.22;1.40;;;;;;;6.65;100.00;98458.16;10358073;28;20054;-81
2022/01/03 04:52:46;;;;;;;6.10;1.23;;;;;;;6.66;100.00;98450.94;10349616;28;20035;-80
2022/01/03 04:57:50;;;;;;;4.57;1.05;;;;;;;6.87;100.00;98457.53;10363383;28;20057;-82
2022/01/03 05:02:58;;;;;;;3.30;1.38;;;;;;;6.82;100.00;98453.06;10354723;28;20046;-81
2022/01/03 05:07:59;;;;;;;4.15;1.05;;;;;;;6.70;100.00;98443.97;10360558;28;20085;-78
2022/01/03 05:13:04;;;;;;;3.00;0.93;;;;;;;6.70;100.00;98446.63;10341913;28;20054;-79
2022/01/03 05:18:05;;;;;;;1.88;0.65;;;;;;;6.74;100.00;98447.63;10305476;28;20049;-80
2022/01/03 05:23:13;;;;;;;2.85;0.68;;;;;;;6.82;100.00;98442.41;10304595;28;20049;-80
2022/01/03 05:28:26;;;;;;;2.00;0.85;;;;;;;7.09;100.00;98430.97;10359113;28;20072;-80
2022/01/03 05:33:47;;;;;;;3.17;1.00;;;;;;;7.06;100.00;98436.13;10324531;28;20121;-81
2022/01/03 05:38:49;;;;;;;4.70;1.35;;;;;;;7.12;100.00;98435.69;10310135;28;20050;-79
2022/01/03 05:43:52;;;;;;;2.72;0.90;;;;;;;7.23;100.00;98439.00;10332681;28;20057;-79
2022/01/03 05:48:54;;;;;;;4.18;1.10;;;;;;;7.23;100.00;98443.53;10328238;28;20054;-80
2022/01/03 05:53:58;;;;;;;1.85;0.90;;;;;;;7.17;100.00;98450.06;10363524;28;20528;-80
2022/01/03 05:59:07;;;;;;;2.75;1.10;;;;;;;7.03;100.00;98469.50;10349935;28;20064;-81
2022/01/03 06:04:54;;;;;;;3.55;1.17;;;;;;;7.15;100.00;98470.91;10327038;28;20114;-80
2022/01/03 06:09:37;;;;;;;5.28;1.10;;;;;;;7.29;100.00;98469.03;10367861;28;20101;-81
2022/01/03 06:14:39;;;;;;;1.40;0.98;;;;;;;7.31;100.00;98477.53;10301849;28;20049;-79
2022/01/03 06:19:42;;;;;;;3.72;1.33;;;;;;;7.28;100.00;98481.59;10374761;28;20034;-79
2022/01/03 06:24:47;;;;;;;3.73;1.33;;;;;;;7.25;100.00;98487.53;10306930;28;20066;-78
2022/01/03 06:30:20;;;;;;;3.10;1.73;;;;;;;7.13;100.00;98484.53;10334660;28;20089;-81
2022/01/03 06:35:36;;;;;;;4.38;1.40;;;;;;;7.16;100.00;98488.50;10343342;28;20126;-81
2022/01/03 06:41:02;;;;;;;4.57;1.30;;;;;;;7.23;100.00;98471.03;10318254;28;20050;-82
2022/01/03 06:46:15;;;;;;;4.50;1.20;;;;;;;7.07;100.00;98469.72;10348477;28;20053;-79
2022/01/03 06:51:17;;;;;;;5.15;1.20;;;;;;;6.90;100.00;98477.50;10332829;28;20203;-82
2022/01/03 06:56:21;;;;;;;4.63;1.02;;;;;;;6.92;100.00;98483.31;10358273;28;20057;-79
2022/01/03 07:01:48;;;;;;;2.15;1.27;;;;;;;6.85;100.00;98486.34;10365041;28;20126;-80
2022/01/03 07:06:49;;;;;;;3.38;2.08;;;;;;;6.87;100.00;98500.22;10367037;28;20058;-79
2022/01/03 07:11:51;;;;;;;2.97;1.17;;;;;;;6.89;100.00;98487.38;10349050;28;20428;-78
2022/01/03 07:22:20;;;;;;;;;;;;;;;6.85;100.00;98507.69;10342693;28;20050;-80
2022/01/03 07:27:21;;;;;;;4.40;1.80;;;;;;;6.83;100.00;98502.66;10365761;28;19976;-79
2022/01/03 07:32:22;;;;;;;5.22;1.30;;;;;;;7.01;100.00;98503.69;10341565;28;20042;-82
2022/01/03 07:37:25;;;;;;;3.80;1.25;;;;;;;7.15;100.00;98490.38;10333216;28;20052;-79
2022/01/03 07:42:28;;;;;;;4.65;2.42;;;;;;;7.30;100.00;98490.09;10352841;28;20066;-79
2022/01/03 07:47:33;;;;;;;3.00;0.85;;;;;;;7.33;100.00;98486.84;10336301;28;20117;-78
2022/01/03 07:52:34;;;;;;;3.10;0.90;;;;;;;7.34;100.00;98485.75;10354554;28;20136;-78
2022/01/03 07:57:35;;;;;;;2.38;0.90;;;;;;;7.37;100.00;98479.03;10315096;28;20053;-79
2022/01/03 08:02:40;;;;;;;3.45;1.00;;;;;;;7.30;100.00;98484.75;10331112;28;20114;-79
2022/01/03 08:07:43;;;;;;;3.25;0.90;;;;;;;7.21;100.00;98507.88;10330005;28;20058;-79
2022/01/03 08:12:45;;;;;;;3.20;1.05;;;;;;;7.18;100.00;98492.47;10381589;28;20057;-77
2022/01/03 08:17:49;;;;;;;2.20;1.00;;;;;;;7.23;100.00;98512.94;10376909;28;20062;-80
2022/01/03 08:22:52;;;;;;;;;;;;;;;7.13;100.00;98517.38;10389663;28;20066;-78
2022/01/03 08:27:57;;;;;;;5.15;1.77;;;;;;;7.17;100.00;98522.13;10373889;28;19956;-77
2022/01/03 08:32:58;;;;;;;4.40;1.20;;;;;;;7.18;100.00;98508.47;10342368;28;20156;-79
2022/01/03 08:37:59;;;;;;;9.05;4.63;;;;;;;7.24;100.00;98517.19;10348758;28;20089;-80
2022/01/03 08:43:02;;;;;;;3.10;1.00;;;;;;;7.21;100.00;98525.78;10351339;28;20065;-77
2022/01/03 08:48:03;;;;;;;2.92;1.10;;;;;;;7.24;100.00;98517.19;10355168;28;20068;-77
2022/01/03 08:53:04;;;;;;;1.92;0.90;;;;;;;7.18;100.00;98526.38;10310487;28;20133;-80
2022/01/03 08:58:06;;;;;;;3.83;1.27;;;;;;;7.11;100.00;98537.41;10334486;28;20117;-78
2022/01/03 09:03:07;;;;;;;5.43;2.20;;;;;;;7.16;100.00;98539.22;10319014;28;20070;-77
2022/01/03 09:08:09;;;;;;;3.40;1.20;;;;;;;7.18;100.00;98537.84;10307271;28;20046;-77
2022/01/03 09:13:13;;;;;;;5.75;1.80;;;;;;;7.19;100.00;98538.63;10343607;28;20054;-77
2022/01/03 09:18:21;;;;;;;4.20;1.92;;;;;;;7.11;100.00;98545.44;10327172;28;20054;-77
2022/01/03 09:23:29;;;;;;;4.93;1.40;;;;;;;7.15;100.00;98551.78;10352221;28;20050;-77
2022/01/03 09:33:50;;;;;;;3.25;1.48;;;;;;;7.33;100.00;98534.13;10348460;28;20059;-77
2022/01/03 09:38:52;;;;;;;3.40;1.40;;;;;;;7.49;100.00;98524.72;10342693;28;20054;-77
2022/01/03 09:43:55;;;;;;;2.63;1.20;;;;;;;7.62;100.00;98517.81;10332877;28;20481;-78
2022/01/03 09:48:57;;;;;;;4.80;1.60;;;;;;;7.70;100.00;98517.91;10331363;28;20049;-79
2022/01/03 09:54:16;;;;;;;2.88;1.60;;;;;;;7.90;100.00;98510.56;10327518;28;20046;-77
2022/01/03 09:59:18;;;;;;;12.02;6.60;;;;;;;8.08;100.00;98503.50;10313882;28;20057;-77
2022/01/03 10:04:19;;;;;;;7.45;2.05;;;;;;;8.30;100.00;98489.38;10328838;28;20135;-77
2022/01/03 10:09:19;;;;;;;6.43;2.33;;;;;;;8.38;100.00;98489.47;10340339;28;20104;-78
2022/01/03 10:14:20;;;;;;;9.73;1.98;;;;;;;8.37;100.00;98476.41;10342473;28;20066;-79
2022/01/03 10:19:22;;;;;;;6.63;1.63;;;;;;;8.40;100.00;98476.56;10350170;28;20050;-78
2022/01/03 10:24:36;;;;;;;7.75;2.40;;;;;;;8.37;100.00;98465.72;10315331;28;20235;-78
2022/01/03 10:29:37;;;;;;;7.32;2.53;;;;;;;8.34;100.00;98471.63;10308462;28;20745;-78
2022/01/03 10:34:43;;;;;;;7.63;2.65;;;;;;;8.31;100.00;98481.03;10352535;28;20058;-81
2022/01/03 10:39:44;;;;;;;11.45;2.78;;;;;;;8.31;100.00;98477.56;10373977;28;20058;-77
2022/01/03 10:44:47;;;;;;;8.73;2.63;;;;;;;8.34;100.00;98468.97;10343091;28;20049;-79
2022/01/03 10:49:48;;;;;;;9.40;2.58;;;;;;;8.36;100.00;98448.09;10358153;28;20044;-79
2022/01/03 10:55:12;;;;;;;6.47;1.95;;;;;;;8.46;100.00;98450.50;10337371;28;20089;-78
2022/01/03 11:00:29;;;;;;;5.38;2.42;;;;;;;8.37;100.00;98438.97;10358248;28;20161;-79
2022/01/03 11:05:39;;;;;;;10.93;2.90;;;;;;;8.33;100.00;98446.78;10391085;28;20061;-78
2022/01/03 11:10:45;;;;;;;6.47;2.28;;;;;;;8.13;100.00;98445.34;10379412;28;20058;-78
2022/01/03 11:15:55;;;;;;;4.35;2.08;;;;;;;8.15;100.00;98435.16;10373659;28;20047;-78
2022/01/03 11:21:16;;;;;;;6.53;2.20;;;;;;;8.15;100.00;98434.38;10367134;28;20041;-78
2022/01/03 11:26:21;;;;;;;7.05;2.20;;;;;;;8.35;100.00;98427.78;10382536;28;20487;-78
2022/01/03 11:31:23;;;;;;;4.25;1.70;;;;;;;8.45;100.00;98411.50;10384160;28;20802;-78
2022/01/03 11:36:24;;;;;;;7.32;1.83;;;;;;;8.57;100.00;98418.94;10354577;28;20073;-80
2022/01/03 11:41:26;;;;;;;8.93;2.20;;;;;;;8.72;100.00;98394.50;10333128;28;20042;-81
2022/01/03 11:46:28;;;;;;;7.55;3.08;;;;;;;8.91;100.00;98373.63;10363963;28;20062;-78
2022/01/03 11:51:34;;;;;;;8.73;1.98;;;;;;;8.94;100.00;98369.53;10379692;28;20046;-79
2022/01/03 11:56:43;;;;;;;9.68;1.63;;;;;;;9.08;100.00;98362.19;10328178;28;20050;-78
2022/01/03 12:07:14;;;;;;;5.70;2.00;;;;;;;9.17;100.00;98336.22;10362081;28;20050;-80
2022/01/03 12:12:35;;;;;;;6.45;2.38;;;;;;;9.20;100.00;98330.25;10311205;28;20054;-79
2022/01/03 12:17:47;;;;;;;8.70;2.13;;;;;;;9.16;100.00;98323.16;10359620;28;20065;-79
2022/01/03 12:22:49;;;;;;;7.70;2.05;;;;;;;9.18;100.00;98326.31;10354578;28;20523;-78
2022/01/03 12:28:00;;;;;;;14.68;3.05;;;;;;;9.11;100.00;98321.41;10333889;28;20398;-80
2022/01/03 12:33:06;;;;;;;6.70;2.63;;;;;;;9.06;100.00;98313.53;10333530;28;20162;-79
2022/01/03 12:38:17;;;;;;;4.47;2.13;;;;;;;9.08;100.00;98306.75;10322656;28;20080;-79
2022/01/03 12:43:36;;;;;;;7.70;2.40;;;;;;;9.04;100.00;98305.00;10347288;28;20054;-79
2022/01/03 12:48:38;;;;;;;8.45;2.45;;;;;;;9.06;100.00;98292.13;10384914;28;20068;-77
2022/01/03 12:53:44;;;;;;;8.20;2.58;;;;;;;9.23;100.00;98283.31;10352497;28;21079;-78
2022/01/03 12:58:50;;;;;;;9.20;2.35;;;;;;;9.15;100.00;98274.19;10369033;28;20041;-78
2022/01/03 13:04:00;;;;;;;8.73;2.22;;;;;;;9.12;100.00;98266.75;10381571;28;20039;-79
2022/01/03 13:09:06;;;;;;;6.40;2.28;;;;;;;9.16;100.00;98259.69;10377196;28;20045;-78
2022/01/03 13:14:15;;;;;;;9.23;2.90;;;;;;;9.10;100.00;98250.22;10365602;28;20042;-78
2022/01/03 13:19:28;;;;;;;8.68;2.78;;;;;;;9.13;100.00;98252.25;10371275;28;20444;-79
2022/01/03 13:24:51;;;;;;;7.85;2.97;;;;;;;9.13;100.00;98239.66;10328207;28;20049;-79
2022/01/03 13:30:25;;;;;;;5.75;1.85;;;;;;;9.08;100.00;98231.00;10351751;28;20047;-80
2022/01/03 13:35:32;;;;;;;7.72;2.25;;;;;;;9.09;100.00;98222.66;10352470;28;20058;-80
2022/01/03 13:41:07;;;;;;;7.10;2.08;;;;;;;9.11;100.00;98211.63;10262546;23;20112;-79
2022/01/03 13:51:16;;;;;;;7.65;2.22;;;;;;;9.11;100.00;98190.22;10208865;29;20058;-81
2022/01/03 13:56:18;;;;;;;10.48;3.88;;;;;;;9.14;100.00;98186.91;10218827;28;20051;-79
2022/01/03 14:01:20;;;;;;;9.00;2.20;;;;;;;9.19;100.00;98194.00;10216748;29;20071;-78
2022/01/03 14:06:43;;;;;;;7.40;2.25;;;;;;;9.25;100.00;98185.50;10222086;29;20099;-79
2022/01/03 14:11:48;;;;;;;4.72;2.38;;;;;;;9.31;100.00;98180.75;10204957;29;20056;-79
2022/01/03 14:16:55;;;;;;;5.63;2.50;;;;;;;9.24;100.00;98172.44;10212769;29;20048;-80
2022/01/03 14:22:10;;;;;;;12.10;3.30;;;;;;;9.28;100.00;98176.03;10200448;28;20067;-79
2022/01/03 14:27:14;;;;;;;6.53;2.35;;;;;;;9.22;100.00;98175.41;10235720;28;20130;-81
2022/01/03 14:32:24;;;;;;;5.22;1.60;;;;;;;9.18;100.00;98163.75;10229963;29;20055;-82
2022/01/03 14:37:32;;;;;;;13.38;6.97;;;;;;;9.23;100.00;98154.75;10241183;28;20070;-80
2022/01/03 14:42:38;;;;;;;6.00;3.60;;;;;;;9.20;100.00;98153.50;10283428;28;20054;-80
2022/01/03 14:47:44;;;;;;;9.02;2.30;;;;;;;9.15;100.00;98150.22;10302400;28;20055;-79
2022/01/03 14:52:47;;;;;;;4.38;1.67;;;;;;;9.08;100.00;98142.66;10310897;28;20079;-80
2022/01/03 14:57:50;;;;;;;7.63;1.80;;;;;;;9.13;100.00;98145.94;10287621;28;20054;-79
2022/01/03 15:03:26;;;;;;;4.45;1.77;;;;;;;9.08;100.00;98140.78;10292771;28;20061;-79
2022/01/03 15:08:33;;;;;;;4.97;1.98;;;;;;;9.16;100.00;98136.53;10302633;28;20589;-79
2022/01/03 15:13:35;;;;;;;4.82;1.45;;;;;;;9.10;100.00;98138.56;10278542;28;20054;-80
2022/01/03 15:18:41;;;;;;;5.13;1.67;;;;;;;9.01;100.00;98124.41;10262899;28;20070;-79
2022/01/03 15:23:43;;;;;;;5.95;2.33;;;;;;;9.00;100.00;98133.53;10287491;28;20099;-81
2022/01/03 15:28:48;;;;;;;5.40;2.60;;;;;;;8.94;100.00;98126.75;10301782;28;20470;-81
2022/01/03 15:33:49;;;;;;;3.90;1.67;;;;;;;8.96;100.00;98119.22;10286036;28;20131;-78
2022/01/03 15:38:51;;;;;;;3.63;1.40;;;;;;;8.86;100.00;98110.69;10268518;28;20112;-79
2022/01/03 15:43:52;;;;;;;5.10;1.88;;;;;;;8.77;100.00;98116.81;10281948;28;20522;-77
2022/01/03 15:48:58;;;;;;;4.18;1.70;;;;;;;8.77;100.00;98116.81;10282390;28;20055;-83
2022/01/03 15:54:03;;;;;;;4.38;1.70;;;;;;;8.74;100.00;98112.13;10341950;28;20046;-81
2022/01/03 15:59:08;;;;;;;5.18;1.60;;;;;;;8.68;100.00;98099.97;10311959;28;20043;-77
2022/01/03 16:04:09;;;;;;;4.72;1.70;;;;;;;8.49;100.00;98104.84;10329461;28;20591;-75
2022/01/03 16:09:09;;;;;;;6.72;2.38;;;;;;;8.36;100.00;98101.22;10314982;28;20116;-77
2022/01/03 16:14:11;;;;;;;6.18;2.10;;;;;;;8.28;100.00;98102.75;10316142;28;20074;-79
2022/01/03 16:19:13;;;;;;;;;;;;;;;8.23;100.00;98094.09;10319615;28;20054;-78
2022/01/03 16:24:13;;;;;;;7.68;3.25;;;;;;;8.11;100.00;98085.88;10346024;28;19932;-77
2022/01/03 16:29:19;;;;;;;6.45;3.20;;;;;;;8.05;100.00;98082.59;10309376;28;20115;-81
2022/01/03 16:34:23;;;;;;;7.90;2.90;;;;;;;7.99;100.00;98078.47;10291197;28;20150;-79
2022/01/03 16:39:26;;;;;;;10.05;3.03;;;;;;;7.87;100.00;98075.63;10267592;28;20442;-81
2022/01/03 16:44:28;;;;;;;6.55;2.70;;;;;;;7.94;100.00;98073.25;10282424;28;20054;-78
2022/01/03 16:49:30;;;;;;;7.85;3.20;;;;;;;7.84;100.00;98062.84;10289708;28;20122;-79
2022/01/03 16:54:31;;;;;;;6.47;3.20;;;;;;;7.88;100.00;98059.28;10291735;28;20054;-78
2022/01/03 16:59:35;;;;;;;6.28;3.22;;;;;;;7.86;100.00;98055.31;10277169;28;20059;-80
2022/01/03 17:04:37;;;;;;;11.50;4.43;;;;;;;7.80;100.00;98054.69;10290043;28;20082;-78
2022/01/03 17:09:42;;;;;;;6.90;3.40;;;;;;;7.80;100.00;98057.34;10288394;28;20066;-79
2022/01/03 17:14:43;;;;;;;8.20;4.22;;;;;;;7.72;100.00;98030.63;10288453;28;20118;-79
2022/01/03 17:19:46;;;;;;;9.02;5.10;;;;;;;7.66;100.00;98020.06;10312843;28;20051;-80
2022/01/03 17:24:47;;;;;;;8.18;4.68;;;;;;;7.70;100.00;98017.56;10308872;28;20042;-78
2022/01/03 17:29:50;;;;;;;7.32;3.72;;;;;;;7.78;100.00;98008.78;10321611;28;20082;-80
2022/01/03 17:34:52;;;;;;;6.32;2.70;;;;;;;7.88;100.00;97989.78;10303240;28;20042;-79
2022/01/03 17:39:58;;;;;;;5.53;2.70;;;;;;;7.83;100.00;97979.25;10300819;28;20043;-80
2022/01/03 17:45:02;;;;;;;6.88;2.53;;;;;;;7.90;100.00;97987.59;10308603;28;20083;-80
2022/01/03 17:50:06;;;;;;;4.43;2.22;;;;;;;7.87;100.00;97979.44;10308562;28;20066;-79
2022/01/03 17:55:09;;;;;;;5.93;2.88;;;;;;;7.91;100.00;97977.69;10268500;28;20802;-81
2022/01/03 18:00:16;;;;;;;4.45;2.65;;;;;;;7.81;100.00;97973.44;10282314;28;20073;-78
2022/01/03 18:11:00;;;;;;;3.88;2.45;;;;;;;7.85;100.00;97965.56;10271837;28;20077;-80
2022/01/03 18:16:06;;;;;;;5.57;2.20;;;;;;;7.78;100.00;97954.59;10275565;28;20091;-80
2022/01/03 18:21:46;;;;;;;4.90;2.10;;;;;;;7.76;100.00;97932.72;10272051;28;20080;-81
2022/01/03 18:26:49;;;;;;;5.38;2.55;;;;;;;7.82;100.00;97929.59;10255508;28;20055;-80
2022/01/03 18:32:10;;;;;;;6.57;3.30;;;;;;;7.89;100.00;97927.25;10256680;28;20051;-80
2022/01/03 18:37:14;;;;;;;6.13;3.10;;;;;;;7.81;100.00;97927.22;10310392;28;20034;-82
2022/01/03 18:42:22;;;;;;;8.88;3.53;;;;;;;7.73;100.00;97936.81;10320719;28;20328;-81
2022/01/03 18:47:24;;;;;;;12.55;4.70;;;;;;;7.70;100.00;97930.22;10308275;28;20058;-79
2022/01/03 18:52:25;;;;;;;9.05;4.03;;;;;;;7.65;100.00;97922.34;10290758;28;21131;-79
2022/01/03 18:57:31;;;;;;;7.43;3.97;;;;;;;7.60;100.00;97914.47;10254741;28;20167;-79
2022/01/03 19:02:36;;;;;;;7.50;2.90;;;;;;;7.54;100.00;97914.94;10281554;28;20442;-80
2022/01/03 19:07:50;;;;;;;7.15;3.08;;;;;;;7.53;100.00;97916.03;10299012;28;20081;-80
2022/01/03 19:12:58;;;;;;;4.60;2.85;;;;;;;7.53;100.00;97908.81;10296884;28;20081;-83
2022/01/03 19:18:14;;;;;;;5.30;2.58;;;;;;;7.44;100.00;97908.00;10333438;28;20034;-79
2022/01/03 19:23:48;;;;;;;8.13;2.90;;;;;;;7.40;100.00;97899.81;10327460;28;20026;-81
2022/01/03 19:28:49;;;;;;;4.53;2.92;;;;;;;7.35;100.00;97897.31;10290370;28;20679;-79
2022/01/03 19:38:56;;;;;;;6.13;2.97;;;;;;;7.50;100.00;97885.41;10298827;28;20050;-80
2022/01/03 19:43:59;;;;;;;8.15;2.72;;;;;;;7.50;100.00;97869.38;10297367;28;20054;-81
2022/01/03 19:49:01;;;;;;;7.05;2.58;;;;;;;7.50;100.00;97863.22;10305623;28;20054;-82
2022/01/03 19:54:02;;;;;;;4.80;2.13;;;;;;;7.42;100.00;97856.81;10289881;28;20070;-79
2022/01/03 19:59:03;;;;;;;9.15;2.78;;;;;;;7.41;100.00;97853.34;10335671;28;20066;-81
2022/01/03 20:04:12;;;;;;;4.18;2.30;;;;;;;7.35;100.00;97843.13;10298673;28;20065;-80
2022/01/03 20:09:17;;;;;;;;;;;;;;;7.24;100.00;97839.97;10302450;28;20114;-79
2022/01/03 20:14:19;;;;;;;3.17;2.15;;;;;;;7.27;100.00;97839.34;10298033;28;20405;-80
2022/01/03 20:19:22;;;;;;;5.03;2.55;;;;;;;7.29;100.00;97834.47;10286386;28;20039;-79
2022/01/03 20:24:24;;;;;;;3.53;2.13;;;;;;;7.29;100.00;97833.69;10304910;28;20089;-81
2022/01/03 20:29:26;;;;;;;5.53;3.17;;;;;;;7.29;100.00;97823.00;10278206;28;20103;-80
2022/01/03 20:34:28;;;;;;;4.80;2.50;;;;;;;7.34;100.00;97815.66;10297649;28;20054;-80
2022/01/03 20:39:30;;;;;;;3.83;2.75;;;;;;;7.37;100.00;97816.91;10286740;28;20077;-81
2022/01/03 20:44:31;;;;;;;4.38;2.72;;;;;;;7.37;100.00;97814.22;10308588;28;20122;-82
2022/01/03 20:49:32;;;;;;;4.18;2.40;;;;;;;7.52;100.00;97807.66;10306592;28;20039;-81
2022/01/03 20:54:32;;;;;;;3.42;1.90;;;;;;;7.58;100.00;97796.47;10329684;28;20038;-84
2022/01/03 20:59:39;;;;;;;4.93;2.30;;;;;;;7.60;100.00;97793.53;10315883;28;20038;-81
2022/01/03 21:05:14;;;;;;;4.05;1.88;;;;;;;7.52;100.00;97807.66;10321669;28;20058;-80
2022/01/03 21:10:28;;;;;;;4.88;2.60;;;;;;;7.44;100.00;97787.06;10326253;28;20082;-81
2022/01/03 21:15:34;;;;;;;4.65;2.47;;;;;;;7.50;100.00;97772.44;10318540;28;20055;-83
2022/01/03 21:20:40;;;;;;;8.33;3.47;;;;;;;7.47;100.00;97778.44;10317447;28;20102;-84
2022/01/03 21:25:42;;;;;;;4.60;2.20;;;;;;;7.39;100.00;97754.06;10302940;28;20297;-80
2022/01/03 21:30:43;;;;;;;4.32;2.10;;;;;;;7.50;100.00;97762.59;10281977;28;20197;-79
2022/01/03 21:35:51;;;;;;;2.28;1.95;;;;;;;7.55;100.00;97759.72;10311722;28;20110;-81
2022/01/03 21:40:56;;;;;;;8.35;2.10;;;;;;;7.61;100.00;97747.81;10289172;28;20086;-82
2022/01/03 21:45:58;;;;;;;3.35;1.75;;;;;;;7.67;100.00;97748.41;10244171;28;20070;-80
2022/01/03 21:51:03;;;;;;;2.78;1.70;;;;;;;7.64;100.00;97741.81;10299636;28;20062;-80
2022/01/03 21:56:06;;;;;;;3.08;2.03;;;;;;;7.54;100.00;97731.47;10287583;28;20047;-80
2022/01/03 22:01:15;;;;;;;4.05;2.30;;;;;;;7.47;100.00;97725.03;10301517;28;20071;-81
2022/01/03 22:06:16;;;;;;;4.40;2.55;;;;;;;7.36;100.00;97722.69;10313632;28;20761;-86
2022/01/03 22:11:43;;;;;;;4.93;2.25;;;;;;;7.24;100.00;97719.09;10316326;28;20299;-83
2022/01/03 22:17:12;;;;;;;6.22;2.58;;;;;;;7.08;100.00;97716.88;10287800;28;20055;-84
2022/01/03 22:22:14;;;;;;;3.72;2.20;;;;;;;7.03;100.00;97717.00;10280085;28;20069;-83
2022/01/03 22:28:02;;;;;;;4.53;2.58;;;;;;;7.00;100.00;97700.84;10285708;28;20051;-81
2022/01/03 22:33:11;;;;;;;5.32;2.75;;;;;;;7.00;100.00;97692.84;10256880;28;20065;-81
2022/01/03 22:38:50;;;;;;;4.10;2.42;;;;;;;6.88;100.00;97690.81;10277669;28;20044;-81
2022/01/03 22:43:56;;;;;;;4.65;3.00;;;;;;;6.86;100.00;97677.00;10270876;28;20059;-80
2022/01/03 22:49:06;;;;;;;5.00;2.50;;;;;;;6.94;100.00;97670.88;10298729;28;20386;-83
2022/01/03 22:54:10;;;;;;;5.05;2.60;;;;;;;6.89;100.00;97654.25;10325219;28;20062;-81
2022/01/03 22:59:12;;;;;;;6.10;2.33;;;;;;;6.81;100.00;97650.47;10319252;28;20094;-82
2022/01/03 23:04:22;;;;;;;4.80;2.60;;;;;;;6.87;100.00;97638.56;10282062;28;20055;-81
2022/01/03 23:09:51;;;;;;;3.63;1.95;;;;;;;6.89;100.00;97625.69;10268070;28;20146;-81
2022/01/03 23:14:56;;;;;;;4.18;2.35;;;;;;;6.82;100.00;97604.81;10296685;28;20149;-83
2022/01/03 23:19:58;;;;;;;4.43;2.30;;;;;;;6.86;100.00;97599.66;10289284;28;20043;-82
2022/01/03 23:25:12;;;;;;;4.97;2.60;;;;;;;6.85;100.00;97595.41;10319855;28;20135;-81
2022/01/03 23:30:18;;;;;;;7.97;2.78;;;;;;;6.88;100.00;97589.47;10302706;28;20121;-79
2022/01/03 23:35:41;;;;;;;4.68;2.58;;;;;;;6.81;100.00;97586.47;10302694;28;20055;-80
2022/01/03 23:40:45;;;;;;;3.92;2.70;;;;;;;6.75;100.00;97585.84;10309697;28;20182;-79
2022/01/03 23:45:46;;;;;;;4.15;2.60;;;;;;;6.67;100.00;97575.16;10315605;28;20035;-79
2022/01/03 23:50:48;;;;;;;5.85;2.58;;;;;;;6.61;100.00;97569.22;10339654;28;20125;-82
2022/01/03 23:55:50;;;;;;;4.55;3.08;;;;;;;6.59;100.00;97562.66;10318250;28;20039;-78
